UAL567 KFLL-KSDF
Flight info
| Callsign | UAL567 |
|---|---|
| Flight time | 2h 0m |
| Altitude | 38000 |
| Route | FRSBE2 STYMY Q77 WIGVO GLAZR LEDDL1 |
| Aircraft | B789/H-SDE1E2E3FGHIJ2J3J4J5M1RWXY/LB1D1 |
Departure
| Time | 2026-05-03 22:07 |
|---|---|
| Airport | Fort Lauderdale Hollywood International Airport (KFLL) |
Arrival
| Time | 2026-05-04 00:08 |
|---|---|
| Airport | Louisville Muhammad Ali International Airport (KSDF) |
| Time | Latitude | Longitude | Altitude | Speed | Heading |
|---|---|---|---|---|---|
| 2026-05-03 20:35 | 26.07052 | -80.14719 | 30 ft | 0 kts | 59° |
| 2026-05-03 21:06 | 26.07046 | -80.14731 | 31 ft | 3 kts | 54° |
| 2026-05-03 21:07 | 26.07028 | -80.14752 | 30 ft | 4 kts | 32° |
| 2026-05-03 21:07 | 26.07005 | -80.14762 | 26 ft | 4 kts | 347° |
| 2026-05-03 21:07 | 26.06994 | -80.14756 | 29 ft | 6 kts | 312° |
| 2026-05-03 21:12 | 26.06995 | -80.14758 | 29 ft | 1 kts | 312° |
| 2026-05-03 21:12 | 26.07004 | -80.14768 | 30 ft | 2 kts | 314° |
| 2026-05-03 21:12 | 26.07021 | -80.14788 | 28 ft | 5 kts | 314° |
| 2026-05-03 21:13 | 26.07048 | -80.14819 | 27 ft | 6 kts | 314° |
| 2026-05-03 21:13 | 26.07081 | -80.14849 | 29 ft | 6 kts | 320° |
| 2026-05-03 21:13 | 26.07109 | -80.14881 | 30 ft | 6 kts | 314° |
| 2026-05-03 21:13 | 26.07145 | -80.14924 | 26 ft | 9 kts | 311° |
| 2026-05-03 21:14 | 26.07158 | -80.14990 | 27 ft | 10 kts | 256° |
| 2026-05-03 21:14 | 26.07158 | -80.15059 | 27 ft | 0 kts | 295° |
| 2026-05-03 21:14 | 26.07167 | -80.15074 | 27 ft | 4 kts | 306° |
| 2026-05-03 21:14 | 26.07198 | -80.15111 | 30 ft | 9 kts | 323° |
| 2026-05-03 21:15 | 26.07264 | -80.15126 | 29 ft | 12 kts | 358° |
| 2026-05-03 21:15 | 26.07290 | -80.15126 | 28 ft | 0 kts | 1° |
| 2026-05-03 21:17 | 26.07291 | -80.15126 | 28 ft | 1 kts | 0° |
| 2026-05-03 21:18 | 26.07309 | -80.15126 | 28 ft | 5 kts | 1° |
| 2026-05-03 21:18 | 26.07354 | -80.15125 | 29 ft | 8 kts | 1° |
| 2026-05-03 21:18 | 26.07410 | -80.15126 | 28 ft | 0 kts | 359° |
| 2026-05-03 21:24 | 26.07418 | -80.15126 | 29 ft | 3 kts | 359° |
| 2026-05-03 21:24 | 26.07452 | -80.15129 | 29 ft | 6 kts | 350° |
| 2026-05-03 21:25 | 26.07473 | -80.15148 | 28 ft | 6 kts | 311° |
| 2026-05-03 21:25 | 26.07489 | -80.15213 | 23 ft | 12 kts | 272° |
| 2026-05-03 21:25 | 26.07492 | -80.15332 | 21 ft | 18 kts | 269° |
| 2026-05-03 21:25 | 26.07492 | -80.15491 | 23 ft | 22 kts | 270° |
| 2026-05-03 21:26 | 26.07492 | -80.15675 | 25 ft | 26 kts | 270° |
| 2026-05-03 21:26 | 26.07493 | -80.15897 | 27 ft | 30 kts | 270° |
| 2026-05-03 21:26 | 26.07495 | -80.16123 | 31 ft | 19 kts | 270° |
| 2026-05-03 21:26 | 26.07496 | -80.16206 | 30 ft | 0 kts | 270° |
| 2026-05-03 21:31 | 26.07496 | -80.16212 | 30 ft | 2 kts | 270° |
| 2026-05-03 21:31 | 26.07496 | -80.16237 | 30 ft | 5 kts | 270° |
| 2026-05-03 21:31 | 26.07496 | -80.16269 | 30 ft | 0 kts | 270° |
| 2026-05-03 21:32 | 26.07496 | -80.16270 | 30 ft | 0 kts | 270° |
| 2026-05-03 21:32 | 26.07496 | -80.16281 | 29 ft | 3 kts | 270° |
| 2026-05-03 21:32 | 26.07496 | -80.16290 | 29 ft | 1 kts | 270° |
| 2026-05-03 21:32 | 26.07496 | -80.16309 | 29 ft | 4 kts | 270° |
| 2026-05-03 21:33 | 26.07496 | -80.16342 | 29 ft | 0 kts | 270° |
| 2026-05-03 21:33 | 26.07496 | -80.16343 | 29 ft | 0 kts | 270° |
| 2026-05-03 21:34 | 26.07497 | -80.16351 | 29 ft | 2 kts | 270° |
| 2026-05-03 21:34 | 26.07497 | -80.16370 | 29 ft | 3 kts | 270° |
| 2026-05-03 21:34 | 26.07497 | -80.16385 | 29 ft | 0 kts | 270° |
| 2026-05-03 21:38 | 26.07497 | -80.16386 | 29 ft | 0 kts | 270° |
| 2026-05-03 21:38 | 26.07497 | -80.16395 | 29 ft | 2 kts | 270° |
| 2026-05-03 21:38 | 26.07497 | -80.16417 | 29 ft | 4 kts | 270° |
| 2026-05-03 21:38 | 26.07497 | -80.16439 | 29 ft | 0 kts | 270° |
| 2026-05-03 21:43 | 26.07497 | -80.16450 | 29 ft | 4 kts | 270° |
| 2026-05-03 21:43 | 26.07497 | -80.16494 | 30 ft | 0 kts | 270° |
| 2026-05-03 21:46 | 26.07497 | -80.16496 | 30 ft | 1 kts | 270° |
| 2026-05-03 21:46 | 26.07497 | -80.16507 | 30 ft | 2 kts | 270° |
| 2026-05-03 21:46 | 26.07497 | -80.16528 | 30 ft | 4 kts | 270° |
| 2026-05-03 21:46 | 26.07498 | -80.16563 | 30 ft | 6 kts | 272° |
| 2026-05-03 21:47 | 26.07499 | -80.16581 | 29 ft | 0 kts | 276° |
| 2026-05-03 21:48 | 26.07499 | -80.16584 | 29 ft | 2 kts | 276° |
| 2026-05-03 21:48 | 26.07505 | -80.16607 | 29 ft | 5 kts | 287° |
| 2026-05-03 21:48 | 26.07522 | -80.16630 | 29 ft | 0 kts | 327° |
| 2026-05-03 21:53 | 26.07528 | -80.16634 | 28 ft | 2 kts | 334° |
| 2026-05-03 21:54 | 26.07549 | -80.16640 | 28 ft | 4 kts | 352° |
| 2026-05-03 21:54 | 26.07574 | -80.16642 | 28 ft | 0 kts | 356° |
| 2026-05-03 22:05 | 26.07586 | -80.16643 | 27 ft | 3 kts | 357° |
| 2026-05-03 22:05 | 26.07620 | -80.16643 | 27 ft | 6 kts | 0° |
| 2026-05-03 22:05 | 26.07667 | -80.16632 | 27 ft | 7 kts | 27° |
| 2026-05-03 22:06 | 26.07689 | -80.16596 | 27 ft | 5 kts | 78° |
| 2026-05-03 22:06 | 26.07691 | -80.16562 | 28 ft | 4 kts | 85° |
| 2026-05-03 22:06 | 26.07693 | -80.16526 | 28 ft | 7 kts | 88° |
| 2026-05-03 22:06 | 26.07693 | -80.16240 | 32 ft | 73 kts | 90° |
| 2026-05-03 22:07 | 26.07686 | -80.15410 | 23 ft | 141 kts | 90° |
| 2026-05-03 22:07 | 26.07667 | -80.14149 | 313 ft | 173 kts | 89° |
| 2026-05-03 22:07 | 26.07659 | -80.12659 | 698 ft | 216 kts | 85° |
| 2026-05-03 22:07 | 26.07766 | -80.11053 | 2058 ft | 195 kts | 86° |
| 2026-05-03 22:08 | 26.07982 | -80.09584 | 2948 ft | 199 kts | 70° |
| 2026-05-03 22:08 | 26.08513 | -80.08145 | 3562 ft | 213 kts | 64° |
| 2026-05-03 22:08 | 26.09558 | -80.06915 | 4119 ft | 216 kts | 18° |
| 2026-05-03 22:08 | 26.10945 | -80.06429 | 5174 ft | 213 kts | 16° |
| 2026-05-03 22:09 | 26.12357 | -80.05829 | 5999 ft | 223 kts | 17° |
| 2026-05-03 22:09 | 26.13841 | -80.05209 | 6936 ft | 229 kts | 16° |
| 2026-05-03 22:09 | 26.15350 | -80.04726 | 7673 ft | 230 kts | 355° |
| 2026-05-03 22:10 | 26.18594 | -80.05833 | 8736 ft | 264 kts | 336° |
| 2026-05-03 22:10 | 26.20345 | -80.06482 | 9762 ft | 267 kts | 335° |
| 2026-05-03 22:10 | 26.21918 | -80.07499 | 10624 ft | 259 kts | 311° |
| 2026-05-03 22:10 | 26.23012 | -80.09081 | 11476 ft | 257 kts | 290° |
| 2026-05-03 22:11 | 26.23662 | -80.10942 | 12294 ft | 261 kts | 289° |
| 2026-05-03 22:11 | 26.24366 | -80.12836 | 12989 ft | 271 kts | 289° |
| 2026-05-03 22:11 | 26.25080 | -80.14826 | 13068 ft | 278 kts | 288° |
| 2026-05-03 22:11 | 26.25934 | -80.16727 | 13070 ft | 274 kts | 301° |
| 2026-05-03 22:12 | 26.26978 | -80.18483 | 13058 ft | 270 kts | 297° |
| 2026-05-03 22:12 | 26.27953 | -80.20271 | 13042 ft | 269 kts | 297° |
| 2026-05-03 22:12 | 26.28941 | -80.22034 | 13042 ft | 267 kts | 298° |
| 2026-05-03 22:12 | 26.29944 | -80.23785 | 13036 ft | 268 kts | 298° |
| 2026-05-03 22:13 | 26.30952 | -80.25553 | 13217 ft | 271 kts | 298° |
| 2026-05-03 22:13 | 26.31954 | -80.27319 | 13737 ft | 270 kts | 298° |
| 2026-05-03 22:13 | 26.32961 | -80.29097 | 14106 ft | 277 kts | 298° |
| 2026-05-03 22:13 | 26.34021 | -80.30968 | 14322 ft | 293 kts | 299° |
| 2026-05-03 22:14 | 26.35525 | -80.32595 | 14720 ft | 315 kts | 332° |
| 2026-05-03 22:14 | 26.37668 | -80.33121 | 15875 ft | 327 kts | 356° |
| 2026-05-03 22:14 | 26.39954 | -80.32533 | 16611 ft | 351 kts | 24° |
| 2026-05-03 22:14 | 26.41911 | -80.30851 | 17445 ft | 366 kts | 43° |
| 2026-05-03 22:15 | 26.43588 | -80.28655 | 18247 ft | 374 kts | 50° |
| 2026-05-03 22:15 | 26.45151 | -80.26318 | 19020 ft | 379 kts | 51° |
| 2026-05-03 22:15 | 26.46992 | -80.24228 | 19634 ft | 377 kts | 26° |
| 2026-05-03 22:15 | 26.49364 | -80.23106 | 20255 ft | 369 kts | 2° |
| 2026-05-03 22:16 | 26.51893 | -80.22950 | 20827 ft | 363 kts | 349° |
| 2026-05-03 22:16 | 26.54415 | -80.23216 | 21450 ft | 363 kts | 344° |
| 2026-05-03 22:16 | 26.56928 | -80.23611 | 22104 ft | 367 kts | 343° |
| 2026-05-03 22:16 | 26.59467 | -80.24048 | 22748 ft | 371 kts | 342° |
| 2026-05-03 22:17 | 26.62003 | -80.24594 | 23316 ft | 369 kts | 333° |
| 2026-05-03 22:17 | 26.64366 | -80.25638 | 23879 ft | 363 kts | 326° |
| 2026-05-03 22:17 | 26.66638 | -80.26875 | 24344 ft | 364 kts | 324° |
| 2026-05-03 22:17 | 26.68854 | -80.28168 | 24828 ft | 366 kts | 323° |
| 2026-05-03 22:18 | 26.71107 | -80.29508 | 25335 ft | 368 kts | 322° |
| 2026-05-03 22:18 | 26.73381 | -80.30849 | 25833 ft | 371 kts | 323° |
| 2026-05-03 22:18 | 26.75683 | -80.32172 | 26311 ft | 373 kts | 322° |
| 2026-05-03 22:18 | 26.77911 | -80.33639 | 26778 ft | 371 kts | 317° |
| 2026-05-03 22:19 | 26.80071 | -80.35223 | 27225 ft | 372 kts | 317° |
| 2026-05-03 22:19 | 26.82299 | -80.36747 | 27674 ft | 379 kts | 321° |
| 2026-05-03 22:19 | 26.84635 | -80.38166 | 28146 ft | 383 kts | 322° |
| 2026-05-03 22:19 | 26.86984 | -80.39611 | 28492 ft | 387 kts | 320° |
| 2026-05-03 22:20 | 26.89314 | -80.41124 | 28951 ft | 388 kts | 320° |
| 2026-05-03 22:20 | 26.91654 | -80.42651 | 29359 ft | 392 kts | 320° |
| 2026-05-03 22:20 | 26.94040 | -80.44171 | 29804 ft | 395 kts | 320° |
| 2026-05-03 22:20 | 26.96435 | -80.45690 | 30191 ft | 397 kts | 320° |
| 2026-05-03 22:21 | 26.98846 | -80.47234 | 30530 ft | 399 kts | 320° |
| 2026-05-03 22:21 | 27.01256 | -80.48785 | 30865 ft | 401 kts | 320° |
| 2026-05-03 22:21 | 27.03681 | -80.50342 | 31201 ft | 403 kts | 320° |
| 2026-05-03 22:21 | 27.06123 | -80.51905 | 31539 ft | 405 kts | 319° |
| 2026-05-03 22:22 | 27.08575 | -80.53477 | 31852 ft | 407 kts | 319° |
| 2026-05-03 22:22 | 27.11029 | -80.55055 | 32256 ft | 406 kts | 319° |
| 2026-05-03 22:22 | 27.13491 | -80.56636 | 32564 ft | 408 kts | 319° |
| 2026-05-03 22:22 | 27.15959 | -80.58224 | 32921 ft | 410 kts | 319° |
| 2026-05-03 22:23 | 27.18424 | -80.59807 | 33356 ft | 408 kts | 319° |
| 2026-05-03 22:23 | 27.20888 | -80.61393 | 33642 ft | 409 kts | 318° |
| 2026-05-03 22:23 | 27.23365 | -80.62990 | 33945 ft | 411 kts | 318° |
| 2026-05-03 22:23 | 27.25847 | -80.64589 | 34212 ft | 412 kts | 318° |
| 2026-05-03 22:24 | 27.28341 | -80.66196 | 34428 ft | 414 kts | 318° |
| 2026-05-03 22:24 | 27.30842 | -80.67809 | 34648 ft | 416 kts | 318° |
| 2026-05-03 22:24 | 27.33360 | -80.69434 | 34868 ft | 418 kts | 318° |
| 2026-05-03 22:24 | 27.35886 | -80.71065 | 35082 ft | 420 kts | 318° |
| 2026-05-03 22:25 | 27.38424 | -80.72704 | 35281 ft | 422 kts | 318° |
| 2026-05-03 22:25 | 27.40970 | -80.74349 | 35490 ft | 423 kts | 318° |
| 2026-05-03 22:25 | 27.43500 | -80.75984 | 35682 ft | 425 kts | 318° |
| 2026-05-03 22:25 | 27.46070 | -80.77647 | 35884 ft | 427 kts | 318° |
| 2026-05-03 22:26 | 27.48644 | -80.79314 | 36080 ft | 429 kts | 318° |
| 2026-05-03 22:26 | 27.51237 | -80.80993 | 36270 ft | 430 kts | 318° |
| 2026-05-03 22:26 | 27.53826 | -80.82668 | 36551 ft | 429 kts | 318° |
| 2026-05-03 22:26 | 27.56413 | -80.84345 | 36803 ft | 429 kts | 318° |
| 2026-05-03 22:27 | 27.58999 | -80.86023 | 37034 ft | 429 kts | 318° |
| 2026-05-03 22:27 | 27.61586 | -80.87703 | 37254 ft | 429 kts | 317° |
| 2026-05-03 22:27 | 27.64169 | -80.89380 | 37473 ft | 429 kts | 317° |
| 2026-05-03 22:27 | 27.66756 | -80.91061 | 37694 ft | 429 kts | 317° |
| 2026-05-03 22:28 | 27.69336 | -80.92736 | 37982 ft | 427 kts | 317° |
| 2026-05-03 22:28 | 27.74508 | -80.96107 | 38064 ft | 430 kts | 317° |
| 2026-05-03 22:29 | 27.79662 | -80.99456 | 38061 ft | 426 kts | 317° |
| 2026-05-03 22:29 | 27.84778 | -81.02798 | 38061 ft | 424 kts | 317° |
| 2026-05-03 22:30 | 27.89907 | -81.06149 | 38070 ft | 430 kts | 317° |
| 2026-05-03 22:30 | 27.95150 | -81.09577 | 38100 ft | 439 kts | 317° |
| 2026-05-03 22:31 | 28.00500 | -81.13076 | 38105 ft | 448 kts | 317° |
| 2026-05-03 22:31 | 28.06124 | -81.16402 | 38106 ft | 467 kts | 323° |
| 2026-05-03 22:32 | 28.12079 | -81.19483 | 38105 ft | 475 kts | 323° |
| 2026-05-03 22:32 | 28.18156 | -81.22606 | 38119 ft | 483 kts | 323° |
| 2026-05-03 22:33 | 28.24310 | -81.25780 | 38119 ft | 489 kts | 323° |
| 2026-05-03 22:33 | 28.30507 | -81.28981 | 38108 ft | 496 kts | 323° |
| 2026-05-03 22:34 | 28.36826 | -81.32241 | 38106 ft | 502 kts | 324° |
| 2026-05-03 22:34 | 28.43224 | -81.35490 | 38126 ft | 505 kts | 324° |
| 2026-05-03 22:35 | 28.49625 | -81.38770 | 38107 ft | 503 kts | 323° |
| 2026-05-03 22:35 | 28.56042 | -81.42056 | 38114 ft | 503 kts | 323° |
| 2026-05-03 22:36 | 28.62382 | -81.45308 | 38116 ft | 502 kts | 323° |
| 2026-05-03 22:36 | 28.68754 | -81.48581 | 38120 ft | 502 kts | 323° |
| 2026-05-03 22:37 | 28.75125 | -81.51859 | 38130 ft | 505 kts | 323° |
| 2026-05-03 22:37 | 28.80450 | -81.54598 | 38128 ft | 505 kts | 323° |
| 2026-05-03 22:38 | 28.86848 | -81.57898 | 38132 ft | 505 kts | 323° |
| 2026-05-03 22:38 | 28.93541 | -81.60679 | 38143 ft | 527 kts | 336° |
| 2026-05-03 22:38 | 28.97214 | -81.61336 | 38135 ft | 542 kts | 345° |
| 2026-05-03 22:39 | 29.00975 | -81.61681 | 38122 ft | 545 kts | 344° |
| 2026-05-03 22:39 | 29.08536 | -81.62369 | 38128 ft | 545 kts | 344° |
| 2026-05-03 22:40 | 29.16048 | -81.63051 | 37927 ft | 538 kts | 344° |
| 2026-05-03 22:40 | 29.19784 | -81.63399 | 37624 ft | 537 kts | 344° |
| 2026-05-03 22:40 | 29.23507 | -81.63742 | 37355 ft | 536 kts | 344° |
| 2026-05-03 22:40 | 29.27212 | -81.64078 | 37125 ft | 533 kts | 344° |
| 2026-05-03 22:41 | 29.30894 | -81.64411 | 37135 ft | 529 kts | 343° |
| 2026-05-03 22:41 | 29.38245 | -81.65099 | 37149 ft | 532 kts | 344° |
| 2026-05-03 22:42 | 29.45667 | -81.65774 | 37150 ft | 536 kts | 344° |
| 2026-05-03 22:42 | 29.53097 | -81.66460 | 37154 ft | 535 kts | 344° |
| 2026-05-03 22:43 | 29.60509 | -81.67145 | 37146 ft | 535 kts | 344° |
| 2026-05-03 22:43 | 29.67912 | -81.67827 | 37148 ft | 534 kts | 344° |
| 2026-05-03 22:44 | 29.75317 | -81.68515 | 37149 ft | 534 kts | 344° |
| 2026-05-03 22:44 | 29.82736 | -81.69201 | 37149 ft | 535 kts | 344° |
| 2026-05-03 22:45 | 29.90163 | -81.69892 | 37155 ft | 536 kts | 344° |
| 2026-05-03 22:45 | 29.97585 | -81.70579 | 37153 ft | 534 kts | 344° |
| 2026-05-03 22:46 | 30.04995 | -81.71272 | 37157 ft | 535 kts | 344° |
| 2026-05-03 22:46 | 30.12419 | -81.71962 | 37162 ft | 535 kts | 344° |
| 2026-05-03 22:47 | 30.19857 | -81.72659 | 37163 ft | 536 kts | 344° |
| 2026-05-03 22:47 | 30.27279 | -81.73350 | 37182 ft | 535 kts | 343° |
| 2026-05-03 22:48 | 30.34696 | -81.74048 | 37180 ft | 535 kts | 344° |
| 2026-05-03 22:48 | 30.42118 | -81.74742 | 37148 ft | 534 kts | 344° |
| 2026-05-03 22:49 | 30.49534 | -81.75441 | 37152 ft | 535 kts | 344° |
| 2026-05-03 22:49 | 30.56916 | -81.76134 | 37154 ft | 535 kts | 344° |
| 2026-05-03 22:50 | 30.64273 | -81.77036 | 37173 ft | 523 kts | 338° |
| 2026-05-03 22:50 | 30.71480 | -81.78475 | 37156 ft | 527 kts | 338° |
| 2026-05-03 22:51 | 30.78692 | -81.79913 | 37154 ft | 525 kts | 338° |
| 2026-05-03 22:51 | 30.85889 | -81.81362 | 37154 ft | 525 kts | 338° |
| 2026-05-03 22:52 | 30.93097 | -81.82804 | 37151 ft | 525 kts | 338° |
| 2026-05-03 22:52 | 31.00298 | -81.84255 | 37170 ft | 526 kts | 338° |
| 2026-05-03 22:53 | 31.07501 | -81.85701 | 37155 ft | 525 kts | 338° |
| 2026-05-03 22:53 | 31.14696 | -81.87155 | 37157 ft | 525 kts | 338° |
| 2026-05-03 22:54 | 31.21888 | -81.88606 | 37165 ft | 524 kts | 338° |
| 2026-05-03 22:54 | 31.29085 | -81.90063 | 37158 ft | 525 kts | 338° |
| 2026-05-03 22:55 | 31.36258 | -81.91513 | 37167 ft | 523 kts | 338° |
| 2026-05-03 22:55 | 31.43433 | -81.92973 | 37172 ft | 523 kts | 338° |
| 2026-05-03 22:56 | 31.50610 | -81.94429 | 37177 ft | 524 kts | 338° |
| 2026-05-03 22:56 | 31.57796 | -81.95892 | 37175 ft | 523 kts | 338° |
| 2026-05-03 22:57 | 31.64881 | -81.97334 | 37160 ft | 520 kts | 338° |
| 2026-05-03 22:57 | 31.72026 | -81.98797 | 37155 ft | 521 kts | 338° |
| 2026-05-03 22:58 | 31.79177 | -82.00256 | 37157 ft | 522 kts | 338° |
| 2026-05-03 22:58 | 31.86345 | -82.01675 | 37159 ft | 525 kts | 342° |
| 2026-05-03 22:59 | 31.93707 | -82.02041 | 37155 ft | 531 kts | 346° |
| 2026-05-03 22:59 | 32.01114 | -82.02288 | 37157 ft | 533 kts | 346° |
| 2026-05-03 23:00 | 32.08531 | -82.02547 | 37154 ft | 533 kts | 346° |
| 2026-05-03 23:00 | 32.15934 | -82.02798 | 37149 ft | 529 kts | 346° |
| 2026-05-03 23:01 | 32.23275 | -82.03058 | 37146 ft | 529 kts | 346° |
| 2026-05-03 23:01 | 32.30597 | -82.03310 | 37147 ft | 530 kts | 346° |
| 2026-05-03 23:02 | 32.38019 | -82.03568 | 37182 ft | 531 kts | 346° |
| 2026-05-03 23:02 | 32.41620 | -82.03820 | 37167 ft | 515 kts | 339° |
| 2026-05-03 23:02 | 32.45084 | -82.04598 | 37162 ft | 499 kts | 332° |
| 2026-05-03 23:02 | 32.48339 | -82.05865 | 37161 ft | 486 kts | 324° |
| 2026-05-03 23:03 | 32.51350 | -82.07562 | 37159 ft | 474 kts | 318° |
| 2026-05-03 23:03 | 32.57131 | -82.11349 | 37428 ft | 475 kts | 319° |
| 2026-05-03 23:03 | 32.60021 | -82.13244 | 37578 ft | 475 kts | 318° |
| 2026-05-03 23:04 | 32.62905 | -82.15147 | 37722 ft | 475 kts | 318° |
| 2026-05-03 23:04 | 32.65792 | -82.17051 | 37941 ft | 475 kts | 319° |
| 2026-05-03 23:04 | 32.68678 | -82.18947 | 38128 ft | 474 kts | 319° |
| 2026-05-03 23:05 | 32.74473 | -82.22773 | 38146 ft | 479 kts | 319° |
| 2026-05-03 23:05 | 32.80340 | -82.26644 | 38157 ft | 485 kts | 319° |
| 2026-05-03 23:06 | 32.86263 | -82.30562 | 38157 ft | 489 kts | 319° |
| 2026-05-03 23:06 | 32.92227 | -82.34510 | 38155 ft | 491 kts | 319° |
| 2026-05-03 23:07 | 32.98196 | -82.38468 | 38150 ft | 490 kts | 319° |
| 2026-05-03 23:07 | 33.04156 | -82.42432 | 38152 ft | 491 kts | 320° |
| 2026-05-03 23:08 | 33.10120 | -82.46397 | 38153 ft | 491 kts | 320° |
| 2026-05-03 23:08 | 33.16046 | -82.50349 | 38157 ft | 491 kts | 320° |
| 2026-05-03 23:09 | 33.22007 | -82.54327 | 38166 ft | 491 kts | 320° |
| 2026-05-03 23:09 | 33.27964 | -82.58310 | 38179 ft | 491 kts | 319° |
| 2026-05-03 23:10 | 33.33913 | -82.62294 | 38185 ft | 490 kts | 319° |
| 2026-05-03 23:10 | 33.39869 | -82.66289 | 38188 ft | 490 kts | 319° |
| 2026-05-03 23:11 | 33.45819 | -82.70286 | 38188 ft | 490 kts | 319° |
| 2026-05-03 23:11 | 33.51767 | -82.74288 | 38188 ft | 489 kts | 320° |
| 2026-05-03 23:12 | 33.57697 | -82.78284 | 38188 ft | 488 kts | 320° |
| 2026-05-03 23:12 | 33.63618 | -82.82283 | 38163 ft | 489 kts | 320° |
| 2026-05-03 23:13 | 33.69557 | -82.86297 | 38160 ft | 490 kts | 320° |
| 2026-05-03 23:13 | 33.75499 | -82.90320 | 38214 ft | 490 kts | 321° |
| 2026-05-03 23:14 | 33.81448 | -82.94355 | 38170 ft | 490 kts | 321° |
| 2026-05-03 23:14 | 33.87379 | -82.98385 | 38166 ft | 490 kts | 321° |
| 2026-05-03 23:15 | 33.93314 | -83.02423 | 38165 ft | 490 kts | 321° |
| 2026-05-03 23:15 | 33.99247 | -83.06466 | 38164 ft | 490 kts | 321° |
| 2026-05-03 23:16 | 34.05174 | -83.10513 | 38158 ft | 490 kts | 321° |
| 2026-05-03 23:16 | 34.11061 | -83.14537 | 38157 ft | 489 kts | 321° |
| 2026-05-03 23:17 | 34.16977 | -83.18590 | 38152 ft | 489 kts | 321° |
| 2026-05-03 23:17 | 34.22904 | -83.22654 | 38151 ft | 490 kts | 321° |
| 2026-05-03 23:18 | 34.28837 | -83.26732 | 38150 ft | 490 kts | 321° |
| 2026-05-03 23:18 | 34.34760 | -83.30807 | 38137 ft | 489 kts | 321° |
| 2026-05-03 23:19 | 34.40667 | -83.34880 | 38137 ft | 488 kts | 321° |
| 2026-05-03 23:19 | 34.46571 | -83.38957 | 38149 ft | 489 kts | 321° |
| 2026-05-03 23:20 | 34.52428 | -83.43001 | 37764 ft | 474 kts | 323° |
| 2026-05-03 23:20 | 34.55271 | -83.44967 | 38129 ft | 467 kts | 322° |
| 2026-05-03 23:20 | 34.58078 | -83.46917 | 38100 ft | 461 kts | 322° |
| 2026-05-03 23:21 | 34.63619 | -83.50769 | 37719 ft | 461 kts | 323° |
| 2026-05-03 23:21 | 34.66402 | -83.52701 | 38118 ft | 457 kts | 323° |
| 2026-05-03 23:21 | 34.69136 | -83.54590 | 38095 ft | 452 kts | 322° |
| 2026-05-03 23:22 | 34.77398 | -83.60357 | 38095 ft | 457 kts | 323° |
| 2026-05-03 23:22 | 34.80155 | -83.62270 | 37705 ft | 458 kts | 326° |
| 2026-05-03 23:22 | 34.82916 | -83.64202 | 38239 ft | 457 kts | 326° |
| 2026-05-03 23:23 | 34.85674 | -83.66130 | 37796 ft | 456 kts | 326° |
| 2026-05-03 23:23 | 34.87494 | -83.67398 | 38207 ft | 452 kts | 323° |
| 2026-05-03 23:23 | 34.92933 | -83.71204 | 38141 ft | 453 kts | 323° |
| 2026-05-03 23:24 | 34.98452 | -83.75073 | 38139 ft | 462 kts | 323° |
| 2026-05-03 23:24 | 35.03765 | -83.78800 | 38147 ft | 468 kts | 323° |
| 2026-05-03 23:25 | 35.04092 | -83.79030 | 38150 ft | 469 kts | 323° |
| 2026-05-03 23:25 | 35.06914 | -83.81023 | 37743 ft | 472 kts | 329° |
| 2026-05-03 23:25 | 35.09773 | -83.83024 | 37825 ft | 474 kts | 330° |
| 2026-05-03 23:26 | 35.15513 | -83.87060 | 37999 ft | 479 kts | 329° |
| 2026-05-03 23:26 | 35.21336 | -83.91172 | 38000 ft | 487 kts | 330° |
| 2026-05-03 23:27 | 35.27250 | -83.95346 | 38012 ft | 495 kts | 329° |
| 2026-05-03 23:27 | 35.33264 | -83.99604 | 38008 ft | 503 kts | 329° |
| 2026-05-03 23:28 | 35.39359 | -84.03923 | 38011 ft | 509 kts | 329° |
| 2026-05-03 23:28 | 35.45524 | -84.08301 | 38017 ft | 515 kts | 329° |
| 2026-05-03 23:29 | 35.51701 | -84.12695 | 38014 ft | 518 kts | 329° |
| 2026-05-03 23:29 | 35.57930 | -84.17135 | 38007 ft | 517 kts | 329° |
| 2026-05-03 23:30 | 35.64156 | -84.21580 | 38008 ft | 517 kts | 329° |
| 2026-05-03 23:30 | 35.70374 | -84.26028 | 38009 ft | 517 kts | 329° |
| 2026-05-03 23:31 | 35.76586 | -84.30479 | 38010 ft | 516 kts | 329° |
| 2026-05-03 23:31 | 35.82793 | -84.34936 | 38010 ft | 516 kts | 329° |
| 2026-05-03 23:32 | 35.88995 | -84.39396 | 38011 ft | 517 kts | 329° |
| 2026-05-03 23:32 | 35.95203 | -84.43869 | 38010 ft | 516 kts | 329° |
| 2026-05-03 23:33 | 36.01402 | -84.48344 | 38010 ft | 517 kts | 329° |
| 2026-05-03 23:33 | 36.07616 | -84.52837 | 38011 ft | 518 kts | 329° |
| 2026-05-03 23:34 | 36.13838 | -84.57346 | 38009 ft | 519 kts | 329° |
| 2026-05-03 23:34 | 36.20017 | -84.61831 | 38011 ft | 518 kts | 329° |
| 2026-05-03 23:35 | 36.26235 | -84.66353 | 38011 ft | 518 kts | 329° |
| 2026-05-03 23:35 | 36.32446 | -84.70878 | 38010 ft | 517 kts | 329° |
| 2026-05-03 23:36 | 36.38679 | -84.75350 | 38017 ft | 517 kts | 335° |
| 2026-05-03 23:36 | 36.42045 | -84.76907 | 38027 ft | 517 kts | 346° |
| 2026-05-03 23:36 | 36.45587 | -84.77652 | 38002 ft | 519 kts | 357° |
| 2026-05-03 23:37 | 36.52802 | -84.77424 | 37984 ft | 512 kts | 2° |
| 2026-05-03 23:37 | 36.56311 | -84.77196 | 37660 ft | 501 kts | 2° |
| 2026-05-03 23:37 | 36.59798 | -84.76974 | 36859 ft | 502 kts | 2° |
| 2026-05-03 23:38 | 36.63286 | -84.76773 | 36082 ft | 502 kts | 2° |
| 2026-05-03 23:38 | 36.66768 | -84.76573 | 35293 ft | 501 kts | 2° |
| 2026-05-03 23:38 | 36.70255 | -84.76360 | 34385 ft | 502 kts | 2° |
| 2026-05-03 23:38 | 36.73756 | -84.76143 | 33385 ft | 505 kts | 2° |
| 2026-05-03 23:39 | 36.77267 | -84.75933 | 32549 ft | 504 kts | 2° |
| 2026-05-03 23:39 | 36.80750 | -84.75726 | 31902 ft | 498 kts | 2° |
| 2026-05-03 23:39 | 36.84190 | -84.75519 | 31243 ft | 493 kts | 2° |
| 2026-05-03 23:39 | 36.87601 | -84.75319 | 30567 ft | 488 kts | 1° |
| 2026-05-03 23:40 | 36.90963 | -84.75632 | 29918 ft | 482 kts | 348° |
| 2026-05-03 23:40 | 36.94202 | -84.76620 | 29234 ft | 477 kts | 345° |
| 2026-05-03 23:40 | 36.97398 | -84.77676 | 28612 ft | 472 kts | 345° |
| 2026-05-03 23:40 | 37.00560 | -84.78732 | 27966 ft | 468 kts | 345° |
| 2026-05-03 23:41 | 37.03695 | -84.79765 | 27322 ft | 464 kts | 345° |
| 2026-05-03 23:41 | 37.06802 | -84.80782 | 26674 ft | 459 kts | 345° |
| 2026-05-03 23:41 | 37.09877 | -84.81797 | 26030 ft | 455 kts | 345° |
| 2026-05-03 23:41 | 37.12916 | -84.82806 | 25400 ft | 450 kts | 345° |
| 2026-05-03 23:42 | 37.15931 | -84.83804 | 24773 ft | 446 kts | 345° |
| 2026-05-03 23:42 | 37.18923 | -84.84793 | 24117 ft | 442 kts | 345° |
| 2026-05-03 23:42 | 37.21880 | -84.85772 | 23482 ft | 437 kts | 345° |
| 2026-05-03 23:42 | 37.24806 | -84.86743 | 22835 ft | 433 kts | 345° |
| 2026-05-03 23:43 | 37.27705 | -84.87706 | 22189 ft | 429 kts | 345° |
| 2026-05-03 23:43 | 37.30577 | -84.88660 | 21546 ft | 425 kts | 345° |
| 2026-05-03 23:43 | 37.33420 | -84.89604 | 20913 ft | 420 kts | 345° |
| 2026-05-03 23:43 | 37.36234 | -84.90541 | 20264 ft | 416 kts | 345° |
| 2026-05-03 23:44 | 37.39023 | -84.91470 | 19619 ft | 413 kts | 345° |
| 2026-05-03 23:44 | 37.41784 | -84.92390 | 18961 ft | 409 kts | 345° |
| 2026-05-03 23:44 | 37.44473 | -84.93467 | 18260 ft | 405 kts | 334° |
| 2026-05-03 23:44 | 37.46815 | -84.95370 | 17635 ft | 399 kts | 320° |
| 2026-05-03 23:45 | 37.48926 | -84.97615 | 16939 ft | 396 kts | 319° |
| 2026-05-03 23:45 | 37.50999 | -84.99868 | 16306 ft | 392 kts | 319° |
| 2026-05-03 23:45 | 37.53043 | -85.02078 | 15972 ft | 381 kts | 319° |
| 2026-05-03 23:45 | 37.55048 | -85.04217 | 15976 ft | 379 kts | 319° |
| 2026-05-03 23:46 | 37.57110 | -85.06357 | 15979 ft | 387 kts | 325° |
| 2026-05-03 23:46 | 37.59530 | -85.07829 | 15991 ft | 388 kts | 342° |
| 2026-05-03 23:46 | 37.62118 | -85.08839 | 15989 ft | 390 kts | 343° |
| 2026-05-03 23:46 | 37.64726 | -85.09782 | 15979 ft | 390 kts | 343° |
| 2026-05-03 23:47 | 37.67319 | -85.10762 | 15901 ft | 385 kts | 342° |
| 2026-05-03 23:47 | 37.69878 | -85.11771 | 15080 ft | 386 kts | 342° |
| 2026-05-03 23:47 | 37.72429 | -85.12773 | 14462 ft | 381 kts | 342° |
| 2026-05-03 23:47 | 37.74975 | -85.13620 | 13747 ft | 378 kts | 346° |
| 2026-05-03 23:48 | 37.77489 | -85.14534 | 13074 ft | 374 kts | 342° |
| 2026-05-03 23:48 | 37.79959 | -85.15510 | 12422 ft | 370 kts | 343° |
| 2026-05-03 23:48 | 37.82426 | -85.16400 | 11757 ft | 367 kts | 344° |
| 2026-05-03 23:48 | 37.84844 | -85.17231 | 11134 ft | 363 kts | 344° |
| 2026-05-03 23:49 | 37.87199 | -85.18070 | 11124 ft | 340 kts | 343° |
| 2026-05-03 23:49 | 37.89413 | -85.18879 | 10892 ft | 326 kts | 343° |
| 2026-05-03 23:49 | 37.91595 | -85.19670 | 10268 ft | 326 kts | 343° |
| 2026-05-03 23:49 | 37.93764 | -85.20448 | 9742 ft | 322 kts | 344° |
| 2026-05-03 23:50 | 37.95821 | -85.21444 | 9482 ft | 308 kts | 327° |
| 2026-05-03 23:50 | 37.96935 | -85.22534 | 9476 ft | 293 kts | 318° |
| 2026-05-03 23:50 | 37.98893 | -85.24765 | 9056 ft | 282 kts | 316° |
| 2026-05-03 23:50 | 38.00294 | -85.26426 | 8987 ft | 273 kts | 316° |
| 2026-05-03 23:51 | 38.01708 | -85.28081 | 8515 ft | 281 kts | 317° |
| 2026-05-03 23:51 | 38.03154 | -85.29754 | 8158 ft | 280 kts | 317° |
| 2026-05-03 23:51 | 38.04590 | -85.31417 | 7811 ft | 279 kts | 317° |
| 2026-05-03 23:51 | 38.06014 | -85.33077 | 7458 ft | 277 kts | 317° |
| 2026-05-03 23:52 | 38.07432 | -85.34730 | 7108 ft | 276 kts | 317° |
| 2026-05-03 23:52 | 38.08844 | -85.36374 | 6764 ft | 275 kts | 317° |
| 2026-05-03 23:52 | 38.10251 | -85.38013 | 6419 ft | 273 kts | 317° |
| 2026-05-03 23:52 | 38.11648 | -85.39643 | 6080 ft | 272 kts | 317° |
| 2026-05-03 23:53 | 38.13027 | -85.41253 | 5981 ft | 266 kts | 317° |
| 2026-05-03 23:53 | 38.14366 | -85.42816 | 5974 ft | 257 kts | 317° |
| 2026-05-03 23:53 | 38.15625 | -85.44286 | 5962 ft | 236 kts | 317° |
| 2026-05-03 23:53 | 38.16831 | -85.45694 | 5949 ft | 230 kts | 317° |
| 2026-05-03 23:54 | 38.17987 | -85.47047 | 5964 ft | 228 kts | 317° |
| 2026-05-03 23:54 | 38.19167 | -85.48428 | 5973 ft | 228 kts | 317° |
| 2026-05-03 23:54 | 38.20317 | -85.49773 | 5962 ft | 228 kts | 317° |
| 2026-05-03 23:54 | 38.21484 | -85.51140 | 5962 ft | 228 kts | 317° |
| 2026-05-03 23:55 | 38.22648 | -85.52503 | 5976 ft | 226 kts | 317° |
| 2026-05-03 23:55 | 38.23803 | -85.53856 | 5984 ft | 226 kts | 317° |
| 2026-05-03 23:55 | 38.24191 | -85.54312 | 5985 ft | 226 kts | 317° |
| 2026-05-03 23:56 | 38.27160 | -85.57795 | 5985 ft | 228 kts | 317° |
| 2026-05-03 23:56 | 38.28324 | -85.59161 | 5986 ft | 228 kts | 317° |
| 2026-05-03 23:56 | 38.29490 | -85.60531 | 5979 ft | 228 kts | 317° |
| 2026-05-03 23:56 | 38.30653 | -85.61896 | 5979 ft | 228 kts | 317° |
| 2026-05-03 23:57 | 38.31820 | -85.63269 | 5980 ft | 228 kts | 317° |
| 2026-05-03 23:57 | 38.32982 | -85.64635 | 5984 ft | 227 kts | 317° |
| 2026-05-03 23:57 | 38.34148 | -85.66007 | 5985 ft | 228 kts | 317° |
| 2026-05-03 23:57 | 38.35330 | -85.67341 | 5970 ft | 225 kts | 323° |
| 2026-05-03 23:58 | 38.36710 | -85.67962 | 5966 ft | 202 kts | 348° |
| 2026-05-03 23:58 | 38.38037 | -85.68396 | 5966 ft | 195 kts | 343° |
| 2026-05-03 23:58 | 38.39345 | -85.68854 | 5964 ft | 194 kts | 344° |
| 2026-05-03 23:58 | 38.40645 | -85.69284 | 5967 ft | 193 kts | 345° |
| 2026-05-03 23:59 | 38.41958 | -85.69710 | 5923 ft | 192 kts | 345° |
| 2026-05-03 23:59 | 38.43255 | -85.70133 | 5397 ft | 195 kts | 345° |
| 2026-05-03 23:59 | 38.44565 | -85.70562 | 4921 ft | 193 kts | 345° |
| 2026-05-03 23:59 | 38.45833 | -85.71087 | 4369 ft | 192 kts | 330° |
| 2026-05-04 00:00 | 38.46569 | -85.72416 | 3863 ft | 182 kts | 279° |
| 2026-05-04 00:00 | 38.46437 | -85.73992 | 3943 ft | 185 kts | 259° |
| 2026-05-04 00:00 | 38.46149 | -85.75626 | 3971 ft | 188 kts | 251° |
| 2026-05-04 00:00 | 38.45606 | -85.77137 | 3978 ft | 189 kts | 244° |
| 2026-05-04 00:01 | 38.45040 | -85.78655 | 3980 ft | 189 kts | 245° |
| 2026-05-04 00:01 | 38.44475 | -85.80174 | 3980 ft | 190 kts | 245° |
| 2026-05-04 00:01 | 38.43810 | -85.81621 | 3931 ft | 190 kts | 225° |
| 2026-05-04 00:01 | 38.42601 | -85.82136 | 3934 ft | 191 kts | 175° |
| 2026-05-04 00:02 | 38.41452 | -85.81381 | 3977 ft | 192 kts | 141° |
| 2026-05-04 00:02 | 38.40277 | -85.80595 | 3963 ft | 192 kts | 166° |
| 2026-05-04 00:02 | 38.38992 | -85.80134 | 3975 ft | 190 kts | 162° |
| 2026-05-04 00:02 | 38.37780 | -85.79703 | 3962 ft | 174 kts | 166° |
| 2026-05-04 00:03 | 38.36635 | -85.79309 | 3964 ft | 169 kts | 166° |
| 2026-05-04 00:03 | 38.35500 | -85.78919 | 3881 ft | 166 kts | 165° |
| 2026-05-04 00:03 | 38.34408 | -85.78543 | 3656 ft | 161 kts | 165° |
| 2026-05-04 00:03 | 38.33318 | -85.78162 | 3450 ft | 164 kts | 165° |
| 2026-05-04 00:04 | 38.32211 | -85.77782 | 3216 ft | 164 kts | 166° |
| 2026-05-04 00:04 | 38.31123 | -85.77409 | 3014 ft | 161 kts | 166° |
| 2026-05-04 00:04 | 38.30057 | -85.77035 | 2815 ft | 157 kts | 165° |
| 2026-05-04 00:04 | 38.29001 | -85.76668 | 2601 ft | 156 kts | 165° |
| 2026-05-04 00:05 | 38.27955 | -85.76309 | 2395 ft | 156 kts | 166° |
| 2026-05-04 00:05 | 38.26908 | -85.75948 | 2189 ft | 156 kts | 166° |
| 2026-05-04 00:05 | 38.25861 | -85.75590 | 1982 ft | 156 kts | 166° |
| 2026-05-04 00:05 | 38.24812 | -85.75230 | 1775 ft | 155 kts | 166° |
| 2026-05-04 00:06 | 38.23768 | -85.74872 | 1565 ft | 155 kts | 166° |
| 2026-05-04 00:06 | 38.22724 | -85.74513 | 1300 ft | 158 kts | 165° |
| 2026-05-04 00:06 | 38.21681 | -85.74156 | 1009 ft | 154 kts | 166° |
| 2026-05-04 00:06 | 38.20658 | -85.73818 | 766 ft | 150 kts | 165° |
| 2026-05-04 00:07 | 38.19655 | -85.73450 | 639 ft | 152 kts | 165° |
| 2026-05-04 00:07 | 38.18642 | -85.73100 | 512 ft | 149 kts | 166° |
| 2026-05-04 00:07 | 38.17769 | -85.72805 | 489 ft | 101 kts | 165° |
| 2026-05-04 00:07 | 38.17263 | -85.72634 | 480 ft | 55 kts | 165° |
| 2026-05-04 00:08 | 38.16984 | -85.72549 | 484 ft | 22 kts | 181° |
| 2026-05-04 00:08 | 38.16873 | -85.72605 | 480 ft | 9 kts | 246° |
| 2026-05-04 00:08 | 38.16880 | -85.72650 | 484 ft | 3 kts | 310° |
| 2026-05-04 00:08 | 38.16892 | -85.72665 | 479 ft | 3 kts | 316° |
| 2026-05-04 00:09 | 38.16899 | -85.72669 | 485 ft | 0 kts | 339° |
| 2026-05-04 00:10 | 38.16916 | -85.72677 | 482 ft | 5 kts | 343° |
| 2026-05-04 00:10 | 38.16955 | -85.72691 | 480 ft | 8 kts | 344° |
| 2026-05-04 00:11 | 38.17029 | -85.72718 | 480 ft | 12 kts | 344° |
| 2026-05-04 00:11 | 38.17113 | -85.72745 | 480 ft | 12 kts | 346° |
| 2026-05-04 00:11 | 38.17192 | -85.72771 | 484 ft | 11 kts | 345° |
| 2026-05-04 00:11 | 38.17266 | -85.72796 | 483 ft | 11 kts | 345° |
| 2026-05-04 00:12 | 38.17317 | -85.72827 | 479 ft | 4 kts | 307° |
| 2026-05-04 00:12 | 38.17339 | -85.72874 | 481 ft | 9 kts | 294° |
| 2026-05-04 00:12 | 38.17366 | -85.72964 | 486 ft | 13 kts | 289° |
| 2026-05-04 00:12 | 38.17364 | -85.73025 | 482 ft | 2 kts | 220° |
| 2026-05-04 00:13 | 38.17348 | -85.73034 | 483 ft | 4 kts | 188° |
| 2026-05-04 00:13 | 38.17330 | -85.73036 | 484 ft | 0 kts | 186° |